sensor_id;sensor_type;location;lat;lon;timestamp;pressure;altitude;pressure_sealevel;temperature;humidity
70103;BME280;57470;50.034;15.256;2023-05-07T00:01:00;99649.31;;;9.99;90.66
70103;BME280;57470;50.034;15.256;2023-05-07T00:03:25;99640.97;;;9.91;91.27
70103;BME280;57470;50.034;15.256;2023-05-07T00:05:52;99645.06;;;9.82;91.18
70103;BME280;57470;50.034;15.256;2023-05-07T00:08:18;99643.16;;;9.70;92.10
70103;BME280;57470;50.034;15.256;2023-05-07T00:10:43;99652.00;;;9.56;93.60
70103;BME280;57470;50.034;15.256;2023-05-07T00:13:09;99650.47;;;9.66;94.11
70103;BME280;57470;50.034;15.256;2023-05-07T00:15:34;99643.16;;;9.70;94.31
70103;BME280;57470;50.034;15.256;2023-05-07T00:18:00;99645.84;;;9.56;94.50
70103;BME280;57470;50.034;15.256;2023-05-07T00:20:25;99635.28;;;9.68;95.16
70103;BME280;57470;50.034;15.256;2023-05-07T00:22:50;99647.06;;;9.64;94.57
70103;BME280;57470;50.034;15.256;2023-05-07T00:25:16;99645.75;;;9.57;94.88
70103;BME280;57470;50.034;15.256;2023-05-07T00:27:41;99636.44;;;9.64;94.92
70103;BME280;57470;50.034;15.256;2023-05-07T00:30:08;99631.69;;;9.69;93.78
70103;BME280;57470;50.034;15.256;2023-05-07T00:32:33;99644.03;;;9.70;94.19
70103;BME280;57470;50.034;15.256;2023-05-07T00:34:59;99624.09;;;9.77;94.05
70103;BME280;57470;50.034;15.256;2023-05-07T00:37:24;99635.28;;;9.83;93.57
70103;BME280;57470;50.034;15.256;2023-05-07T00:39:49;99644.97;;;9.84;92.90
70103;BME280;57470;50.034;15.256;2023-05-07T00:42:15;99646.75;;;9.69;92.94
70103;BME280;57470;50.034;15.256;2023-05-07T00:44:41;99646.84;;;9.67;92.80
70103;BME280;57470;50.034;15.256;2023-05-07T00:47:06;99650.19;;;9.71;92.95
70103;BME280;57470;50.034;15.256;2023-05-07T00:49:39;99654.25;;;9.76;92.33
70103;BME280;57470;50.034;15.256;2023-05-07T00:52:07;99652.66;;;9.74;92.22
70103;BME280;57470;50.034;15.256;2023-05-07T00:54:33;99649.50;;;9.96;92.21
70103;BME280;57470;50.034;15.256;2023-05-07T00:56:59;99638.59;;;9.86;92.26
70103;BME280;57470;50.034;15.256;2023-05-07T00:59:25;99646.13;;;9.65;92.88
70103;BME280;57470;50.034;15.256;2023-05-07T01:01:51;99648.09;;;9.76;92.57
70103;BME280;57470;50.034;15.256;2023-05-07T01:04:17;99645.91;;;9.83;92.38
70103;BME280;57470;50.034;15.256;2023-05-07T01:06:44;99650.16;;;9.85;92.37
70103;BME280;57470;50.034;15.256;2023-05-07T01:09:10;99658.41;;;9.95;91.94
70103;BME280;57470;50.034;15.256;2023-05-07T01:11:35;99646.06;;;9.94;92.06
70103;BME280;57470;50.034;15.256;2023-05-07T01:14:01;99649.13;;;10.02;92.17
70103;BME280;57470;50.034;15.256;2023-05-07T01:16:27;99652.72;;;10.01;92.69
70103;BME280;57470;50.034;15.256;2023-05-07T01:18:53;99650.06;;;10.01;93.01
70103;BME280;57470;50.034;15.256;2023-05-07T01:21:24;99653.00;;;10.10;93.21
70103;BME280;57470;50.034;15.256;2023-05-07T01:23:50;99649.88;;;10.18;93.81
70103;BME280;57470;50.034;15.256;2023-05-07T01:26:15;99645.88;;;10.25;93.51
70103;BME280;57470;50.034;15.256;2023-05-07T01:28:41;99644.53;;;10.32;93.74
70103;BME280;57470;50.034;15.256;2023-05-07T01:31:07;99644.25;;;10.37;94.22
70103;BME280;57470;50.034;15.256;2023-05-07T01:33:34;99654.16;;;10.47;94.07
70103;BME280;57470;50.034;15.256;2023-05-07T01:36:01;99657.91;;;10.58;93.85
70103;BME280;57470;50.034;15.256;2023-05-07T01:38:29;99661.06;;;10.64;94.03
70103;BME280;57470;50.034;15.256;2023-05-07T01:40:55;99659.25;;;10.38;95.85
70103;BME280;57470;50.034;15.256;2023-05-07T01:43:21;99661.06;;;10.37;95.78
70103;BME280;57470;50.034;15.256;2023-05-07T01:45:46;99665.59;;;10.35;95.87
70103;BME280;57470;50.034;15.256;2023-05-07T01:48:14;99664.88;;;10.19;96.80
70103;BME280;57470;50.034;15.256;2023-05-07T01:50:41;99671.69;;;10.37;96.33
70103;BME280;57470;50.034;15.256;2023-05-07T01:53:07;99672.81;;;10.33;96.98
70103;BME280;57470;50.034;15.256;2023-05-07T01:55:33;99676.19;;;10.49;96.55
70103;BME280;57470;50.034;15.256;2023-05-07T01:57:58;99676.53;;;10.58;96.13
70103;BME280;57470;50.034;15.256;2023-05-07T02:00:24;99671.38;;;10.69;95.44
70103;BME280;57470;50.034;15.256;2023-05-07T02:02:50;99676.44;;;10.59;95.84
70103;BME280;57470;50.034;15.256;2023-05-07T02:05:16;99671.28;;;10.70;96.07
70103;BME280;57470;50.034;15.256;2023-05-07T02:07:42;99665.50;;;10.90;94.62
70103;BME280;57470;50.034;15.256;2023-05-07T02:10:08;99669.53;;;10.96;93.67
70103;BME280;57470;50.034;15.256;2023-05-07T02:12:35;99666.78;;;10.98;94.91
70103;BME280;57470;50.034;15.256;2023-05-07T02:15:02;99664.03;;;10.99;94.95
70103;BME280;57470;50.034;15.256;2023-05-07T02:17:29;99665.50;;;11.03;94.57
70103;BME280;57470;50.034;15.256;2023-05-07T02:19:58;99666.59;;;11.13;94.83
70103;BME280;57470;50.034;15.256;2023-05-07T02:22:25;99671.31;;;11.22;94.18
70103;BME280;57470;50.034;15.256;2023-05-07T02:24:53;99657.66;;;11.14;94.30
70103;BME280;57470;50.034;15.256;2023-05-07T02:27:19;99667.59;;;11.25;93.97
70103;BME280;57470;50.034;15.256;2023-05-07T02:29:46;99661.31;;;11.26;94.18
70103;BME280;57470;50.034;15.256;2023-05-07T02:32:13;99659.94;;;11.33;93.81
70103;BME280;57470;50.034;15.256;2023-05-07T02:34:40;99668.53;;;11.37;93.37
70103;BME280;57470;50.034;15.256;2023-05-07T02:37:07;99663.22;;;11.37;93.12
70103;BME280;57470;50.034;15.256;2023-05-07T02:39:33;99668.88;;;11.45;92.05
70103;BME280;57470;50.034;15.256;2023-05-07T02:42:01;99669.09;;;11.42;92.78
70103;BME280;57470;50.034;15.256;2023-05-07T02:44:28;99660.91;;;11.45;92.61
70103;BME280;57470;50.034;15.256;2023-05-07T02:46:57;99664.94;;;11.50;92.60
70103;BME280;57470;50.034;15.256;2023-05-07T02:49:23;99664.28;;;11.47;92.55
70103;BME280;57470;50.034;15.256;2023-05-07T02:51:50;99666.41;;;11.54;92.91
70103;BME280;57470;50.034;15.256;2023-05-07T02:54:17;99669.84;;;11.56;93.01
70103;BME280;57470;50.034;15.256;2023-05-07T02:56:44;99672.38;;;11.45;92.82
70103;BME280;57470;50.034;15.256;2023-05-07T02:59:10;99669.63;;;11.47;93.67
70103;BME280;57470;50.034;15.256;2023-05-07T03:01:37;99672.28;;;11.47;93.55
70103;BME280;57470;50.034;15.256;2023-05-07T03:04:04;99674.84;;;11.61;92.90
70103;BME280;57470;50.034;15.256;2023-05-07T03:06:29;99668.97;;;11.56;93.21
70103;BME280;57470;50.034;15.256;2023-05-07T03:08:54;99674.41;;;11.54;93.61
70103;BME280;57470;50.034;15.256;2023-05-07T03:11:20;99670.91;;;11.54;93.74
70103;BME280;57470;50.034;15.256;2023-05-07T03:13:45;99671.44;;;11.59;93.14
70103;BME280;57470;50.034;15.256;2023-05-07T03:16:10;99674.75;;;11.62;92.64
70103;BME280;57470;50.034;15.256;2023-05-07T03:18:36;99677.94;;;11.55;93.16
70103;BME280;57470;50.034;15.256;2023-05-07T03:21:01;99673.91;;;11.62;92.90
70103;BME280;57470;50.034;15.256;2023-05-07T03:23:27;99673.22;;;11.46;92.26
70103;BME280;57470;50.034;15.256;2023-05-07T03:25:52;99681.25;;;11.58;92.66
70103;BME280;57470;50.034;15.256;2023-05-07T03:28:18;99681.78;;;11.51;92.52
70103;BME280;57470;50.034;15.256;2023-05-07T03:30:43;99679.31;;;11.48;92.11
70103;BME280;57470;50.034;15.256;2023-05-07T03:33:08;99684.88;;;11.70;91.58
70103;BME280;57470;50.034;15.256;2023-05-07T03:35:34;99683.16;;;11.56;91.73
70103;BME280;57470;50.034;15.256;2023-05-07T03:38:01;99684.84;;;11.57;91.63
70103;BME280;57470;50.034;15.256;2023-05-07T03:40:26;99685.91;;;11.55;91.63
70103;BME280;57470;50.034;15.256;2023-05-07T03:42:52;99681.97;;;11.48;91.57
70103;BME280;57470;50.034;15.256;2023-05-07T03:45:17;99686.06;;;11.53;92.02
70103;BME280;57470;50.034;15.256;2023-05-07T03:47:43;99685.50;;;11.36;92.19
70103;BME280;57470;50.034;15.256;2023-05-07T03:50:08;99691.88;;;11.46;92.09
70103;BME280;57470;50.034;15.256;2023-05-07T03:52:34;99694.91;;;11.54;91.81
70103;BME280;57470;50.034;15.256;2023-05-07T03:55:00;99693.06;;;11.54;91.39
70103;BME280;57470;50.034;15.256;2023-05-07T03:57:25;99700.00;;;11.70;90.87
70103;BME280;57470;50.034;15.256;2023-05-07T03:59:50;99695.63;;;11.56;90.66
70103;BME280;57470;50.034;15.256;2023-05-07T04:02:16;99692.31;;;11.27;92.11
70103;BME280;57470;50.034;15.256;2023-05-07T04:04:41;99694.53;;;11.33;92.20
70103;BME280;57470;50.034;15.256;2023-05-07T04:07:07;99695.59;;;11.31;91.85
70103;BME280;57470;50.034;15.256;2023-05-07T04:09:32;99700.69;;;11.21;92.23
70103;BME280;57470;50.034;15.256;2023-05-07T04:11:57;99704.41;;;11.18;92.85
70103;BME280;57470;50.034;15.256;2023-05-07T04:14:23;99705.44;;;11.43;92.04
70103;BME280;57470;50.034;15.256;2023-05-07T04:16:48;99708.28;;;11.40;92.08
70103;BME280;57470;50.034;15.256;2023-05-07T04:19:13;99688.38;;;11.33;91.53
70103;BME280;57470;50.034;15.256;2023-05-07T04:21:39;99693.69;;;11.45;91.98
70103;BME280;57470;50.034;15.256;2023-05-07T04:24:05;99687.00;;;11.65;91.16
70103;BME280;57470;50.034;15.256;2023-05-07T04:26:30;99685.91;;;11.55;90.89
70103;BME280;57470;50.034;15.256;2023-05-07T04:28:56;99691.56;;;11.50;91.55
70103;BME280;57470;50.034;15.256;2023-05-07T04:31:24;99695.22;;;11.62;91.06
70103;BME280;57470;50.034;15.256;2023-05-07T04:33:50;99699.56;;;11.50;91.85
70103;BME280;57470;50.034;15.256;2023-05-07T04:36:16;99694.44;;;11.47;91.38
70103;BME280;57470;50.034;15.256;2023-05-07T04:38:42;99701.28;;;11.51;91.22
70103;BME280;57470;50.034;15.256;2023-05-07T04:41:08;99704.78;;;11.52;91.69
70103;BME280;57470;50.034;15.256;2023-05-07T04:43:34;99707.34;;;11.53;92.12
70103;BME280;57470;50.034;15.256;2023-05-07T04:45:59;99710.34;;;11.74;90.76
70103;BME280;57470;50.034;15.256;2023-05-07T04:48:25;99708.81;;;11.32;92.58
70103;BME280;57470;50.034;15.256;2023-05-07T04:50:52;99714.47;;;11.65;91.56
70103;BME280;57470;50.034;15.256;2023-05-07T04:53:17;99715.84;;;11.46;91.96
70103;BME280;57470;50.034;15.256;2023-05-07T04:55:43;99718.75;;;11.68;90.96
70103;BME280;57470;50.034;15.256;2023-05-07T04:58:10;99713.63;;;11.65;90.71
70103;BME280;57470;50.034;15.256;2023-05-07T05:00:36;99723.66;;;11.74;91.05
70103;BME280;57470;50.034;15.256;2023-05-07T05:03:01;99732.09;;;11.68;90.93
70103;BME280;57470;50.034;15.256;2023-05-07T05:05:27;99729.63;;;11.65;90.78
70103;BME280;57470;50.034;15.256;2023-05-07T05:07:52;99736.34;;;11.71;90.77
70103;BME280;57470;50.034;15.256;2023-05-07T05:10:18;99740.38;;;11.63;90.96
70103;BME280;57470;50.034;15.256;2023-05-07T05:12:43;99739.03;;;11.71;91.48
70103;BME280;57470;50.034;15.256;2023-05-07T05:15:11;99736.13;;;11.74;90.85
70103;BME280;57470;50.034;15.256;2023-05-07T05:17:36;99737.88;;;11.87;90.04
70103;BME280;57470;50.034;15.256;2023-05-07T05:20:02;99741.31;;;11.89;90.06
70103;BME280;57470;50.034;15.256;2023-05-07T05:22:28;99737.22;;;11.84;89.99
70103;BME280;57470;50.034;15.256;2023-05-07T05:24:56;99737.25;;;11.96;90.70
70103;BME280;57470;50.034;15.256;2023-05-07T05:27:21;99738.91;;;12.10;89.91
70103;BME280;57470;50.034;15.256;2023-05-07T05:29:46;99740.88;;;11.95;90.31
70103;BME280;57470;50.034;15.256;2023-05-07T05:32:12;99746.16;;;12.21;89.30
70103;BME280;57470;50.034;15.256;2023-05-07T05:34:37;99758.75;;;12.31;88.69
70103;BME280;57470;50.034;15.256;2023-05-07T05:37:02;99751.25;;;12.36;88.86
70103;BME280;57470;50.034;15.256;2023-05-07T05:39:28;99753.84;;;12.13;89.06
70103;BME280;57470;50.034;15.256;2023-05-07T05:41:53;99759.06;;;12.39;88.32
70103;BME280;57470;50.034;15.256;2023-05-07T05:44:19;99752.75;;;12.40;87.47
70103;BME280;57470;50.034;15.256;2023-05-07T05:46:44;99752.16;;;12.24;89.07
70103;BME280;57470;50.034;15.256;2023-05-07T05:49:10;99754.81;;;12.12;89.12
70103;BME280;57470;50.034;15.256;2023-05-07T05:51:35;99760.59;;;12.06;88.99
70103;BME280;57470;50.034;15.256;2023-05-07T05:54:00;99759.94;;;12.02;88.89
70103;BME280;57470;50.034;15.256;2023-05-07T05:56:26;99762.78;;;12.37;89.47
70103;BME280;57470;50.034;15.256;2023-05-07T05:58:52;99762.22;;;12.45;88.34
70103;BME280;57470;50.034;15.256;2023-05-07T06:01:18;99760.59;;;12.67;88.02
70103;BME280;57470;50.034;15.256;2023-05-07T06:03:43;99765.44;;;12.37;88.10
70103;BME280;57470;50.034;15.256;2023-05-07T06:06:09;99764.53;;;12.25;87.97
70103;BME280;57470;50.034;15.256;2023-05-07T06:08:34;99773.69;;;12.09;88.32
70103;BME280;57470;50.034;15.256;2023-05-07T06:11:01;99781.78;;;12.20;88.47
70103;BME280;57470;50.034;15.256;2023-05-07T06:13:26;99773.16;;;12.29;88.25
70103;BME280;57470;50.034;15.256;2023-05-07T06:15:52;99783.78;;;12.54;88.23
70103;BME280;57470;50.034;15.256;2023-05-07T06:18:18;99782.81;;;12.55;87.15
70103;BME280;57470;50.034;15.256;2023-05-07T06:20:43;99769.94;;;12.73;86.42
70103;BME280;57470;50.034;15.256;2023-05-07T06:23:09;99778.16;;;12.83;86.50
70103;BME280;57470;50.034;15.256;2023-05-07T06:25:34;99770.59;;;12.76;86.27
70103;BME280;57470;50.034;15.256;2023-05-07T06:27:59;99774.72;;;12.81;86.72
70103;BME280;57470;50.034;15.256;2023-05-07T06:30:25;99773.94;;;12.91;86.60
70103;BME280;57470;50.034;15.256;2023-05-07T06:32:51;99777.94;;;13.09;86.61
70103;BME280;57470;50.034;15.256;2023-05-07T06:35:17;99782.69;;;13.06;86.18
70103;BME280;57470;50.034;15.256;2023-05-07T06:37:42;99778.69;;;13.35;85.51
70103;BME280;57470;50.034;15.256;2023-05-07T06:40:08;99777.72;;;13.36;84.23
70103;BME280;57470;50.034;15.256;2023-05-07T06:42:35;99785.69;;;13.25;84.95
70103;BME280;57470;50.034;15.256;2023-05-07T06:45:01;99791.91;;;13.61;83.96
70103;BME280;57470;50.034;15.256;2023-05-07T06:47:27;99796.81;;;13.67;84.01
70103;BME280;57470;50.034;15.256;2023-05-07T06:49:53;99797.00;;;13.29;85.57
70103;BME280;57470;50.034;15.256;2023-05-07T06:52:18;99798.34;;;12.74;89.30
70103;BME280;57470;50.034;15.256;2023-05-07T06:54:44;99800.69;;;12.17;89.94
70103;BME280;57470;50.034;15.256;2023-05-07T06:57:09;99804.94;;;12.19;90.77
70103;BME280;57470;50.034;15.256;2023-05-07T06:59:34;99810.94;;;12.72;88.14
70103;BME280;57470;50.034;15.256;2023-05-07T07:02:00;99816.16;;;12.86;89.18
70103;BME280;57470;50.034;15.256;2023-05-07T07:04:25;99814.66;;;13.31;86.06
70103;BME280;57470;50.034;15.256;2023-05-07T07:06:54;99813.97;;;13.75;85.27
70103;BME280;57470;50.034;15.256;2023-05-07T07:09:19;99814.13;;;13.50;84.04
70103;BME280;57470;50.034;15.256;2023-05-07T07:11:45;99820.72;;;13.57;84.85
70103;BME280;57470;50.034;15.256;2023-05-07T07:14:10;99815.69;;;13.52;83.87
70103;BME280;57470;50.034;15.256;2023-05-07T07:16:35;99822.00;;;13.75;84.90
70103;BME280;57470;50.034;15.256;2023-05-07T07:19:01;99817.75;;;13.84;83.14
70103;BME280;57470;50.034;15.256;2023-05-07T07:21:26;99825.75;;;13.73;83.71
70103;BME280;57470;50.034;15.256;2023-05-07T07:23:52;99828.19;;;13.87;83.43
70103;BME280;57470;50.034;15.256;2023-05-07T07:26:17;99821.19;;;13.86;nan
70103;BME280;57470;50.034;15.256;2023-05-07T07:28:44;99832.25;;;13.93;83.41
70103;BME280;57470;50.034;15.256;2023-05-07T07:31:10;99830.53;;;13.57;83.62
70103;BME280;57470;50.034;15.256;2023-05-07T07:33:36;99830.22;;;13.72;83.14
70103;BME280;57470;50.034;15.256;2023-05-07T07:36:02;99833.97;;;13.94;83.43
70103;BME280;57470;50.034;15.256;2023-05-07T07:38:27;99838.88;;;13.76;83.44
70103;BME280;57470;50.034;15.256;2023-05-07T07:40:53;99835.72;;;13.47;84.38
70103;BME280;57470;50.034;15.256;2023-05-07T07:43:18;99838.78;;;13.77;83.82
70103;BME280;57470;50.034;15.256;2023-05-07T07:45:44;99833.28;;;13.79;82.61
70103;BME280;57470;50.034;15.256;2023-05-07T07:48:11;99832.94;;;13.83;81.86
70103;BME280;57470;50.034;15.256;2023-05-07T07:50:36;99828.47;;;12.76;86.18
70103;BME280;57470;50.034;15.256;2023-05-07T07:53:01;99833.31;;;13.55;84.02
70103;BME280;57470;50.034;15.256;2023-05-07T07:55:27;99837.63;;;14.04;82.43
70103;BME280;57470;50.034;15.256;2023-05-07T07:57:52;99830.47;;;14.15;78.45
70103;BME280;57470;50.034;15.256;2023-05-07T08:00:18;99833.97;;;13.94;78.33
70103;BME280;57470;50.034;15.256;2023-05-07T08:02:43;99826.63;;;14.31;78.42
70103;BME280;57470;50.034;15.256;2023-05-07T08:05:09;99829.63;;;13.80;76.71
70103;BME280;57470;50.034;15.256;2023-05-07T08:07:34;99831.47;;;13.79;79.41
70103;BME280;57470;50.034;15.256;2023-05-07T08:10:00;99832.19;;;14.27;77.69
70103;BME280;57470;50.034;15.256;2023-05-07T08:12:25;99833.63;;;14.32;75.99
70103;BME280;57470;50.034;15.256;2023-05-07T08:14:51;99831.69;;;14.34;76.00
70103;BME280;57470;50.034;15.256;2023-05-07T08:17:16;99835.13;;;14.36;75.77
70103;BME280;57470;50.034;15.256;2023-05-07T08:19:42;99832.38;;;14.48;75.26
70103;BME280;57470;50.034;15.256;2023-05-07T08:22:09;99840.00;;;14.42;74.83
70103;BME280;57470;50.034;15.256;2023-05-07T08:24:34;99845.50;;;14.62;77.48
70103;BME280;57470;50.034;15.256;2023-05-07T08:27:00;99836.50;;;14.52;74.60
70103;BME280;57470;50.034;15.256;2023-05-07T08:29:25;99839.06;;;14.76;74.95
70103;BME280;57470;50.034;15.256;2023-05-07T08:31:50;99847.41;;;14.27;75.77
70103;BME280;57470;50.034;15.256;2023-05-07T08:34:16;99848.06;;;14.53;75.16
70103;BME280;57470;50.034;15.256;2023-05-07T08:36:41;99851.13;;;14.48;73.74
70103;BME280;57470;50.034;15.256;2023-05-07T08:39:07;99853.81;;;14.24;74.48
70103;BME280;57470;50.034;15.256;2023-05-07T08:41:32;99853.97;;;14.34;74.30
70103;BME280;57470;50.034;15.256;2023-05-07T08:43:59;99848.94;;;14.07;76.55
70103;BME280;57470;50.034;15.256;2023-05-07T08:46:31;99851.66;;;14.30;74.64
70103;BME280;57470;50.034;15.256;2023-05-07T08:48:56;99853.53;;;14.05;75.32
70103;BME280;57470;50.034;15.256;2023-05-07T08:51:22;99860.56;;;14.41;74.19
70103;BME280;57470;50.034;15.256;2023-05-07T08:53:48;99854.22;;;14.31;73.72
70103;BME280;57470;50.034;15.256;2023-05-07T08:56:15;99860.72;;;14.84;73.15
70103;BME280;57470;50.034;15.256;2023-05-07T08:58:42;99860.47;;;14.43;72.41
70103;BME280;57470;50.034;15.256;2023-05-07T09:01:09;99864.13;;;14.86;71.61
70103;BME280;57470;50.034;15.256;2023-05-07T09:03:37;99861.31;;;15.10;70.78
70103;BME280;57470;50.034;15.256;2023-05-07T09:06:04;99867.41;;;14.90;72.85
70103;BME280;57470;50.034;15.256;2023-05-07T09:08:30;99861.03;;;15.13;71.96
70103;BME280;57470;50.034;15.256;2023-05-07T09:10:55;99863.28;;;15.40;70.62
70103;BME280;57470;50.034;15.256;2023-05-07T09:13:20;99866.50;;;15.34;70.80
70103;BME280;57470;50.034;15.256;2023-05-07T09:15:46;99866.78;;;15.09;70.99
70103;BME280;57470;50.034;15.256;2023-05-07T09:18:14;99860.66;;;15.29;71.43
70103;BME280;57470;50.034;15.256;2023-05-07T09:20:40;99869.38;;;15.42;70.02
70103;BME280;57470;50.034;15.256;2023-05-07T09:23:07;99864.94;;;15.74;70.63
70103;BME280;57470;50.034;15.256;2023-05-07T09:25:33;99871.53;;;15.05;72.33
70103;BME280;57470;50.034;15.256;2023-05-07T09:28:04;99876.38;;;15.76;70.58
70103;BME280;57470;50.034;15.256;2023-05-07T09:30:33;99866.81;;;15.40;71.18
70103;BME280;57470;50.034;15.256;2023-05-07T09:33:00;99873.84;;;15.10;73.29
70103;BME280;57470;50.034;15.256;2023-05-07T09:35:26;99878.34;;;14.53;74.54
70103;BME280;57470;50.034;15.256;2023-05-07T09:37:59;99870.69;;;15.05;74.05
70103;BME280;57470;50.034;15.256;2023-05-07T09:40:27;99868.47;;;15.21;73.95
70103;BME280;57470;50.034;15.256;2023-05-07T09:42:52;99862.38;;;15.30;71.75
70103;BME280;57470;50.034;15.256;2023-05-07T09:45:24;99861.09;;;15.45;72.96
70103;BME280;57470;50.034;15.256;2023-05-07T09:47:54;99867.25;;;15.68;71.69
70103;BME280;57470;50.034;15.256;2023-05-07T09:50:22;99868.47;;;15.21;71.81
70103;BME280;57470;50.034;15.256;2023-05-07T09:52:51;99871.56;;;15.59;71.49
70103;BME280;57470;50.034;15.256;2023-05-07T09:55:17;99857.75;;;15.96;71.23
70103;BME280;57470;50.034;15.256;2023-05-07T09:57:44;99857.59;;;15.33;72.67
70103;BME280;57470;50.034;15.256;2023-05-07T10:00:10;99864.25;;;15.61;70.41
70103;BME280;57470;50.034;15.256;2023-05-07T10:02:37;99868.63;;;15.51;70.47
70103;BME280;57470;50.034;15.256;2023-05-07T10:05:06;99868.19;;;16.10;69.63
70103;BME280;57470;50.034;15.256;2023-05-07T10:07:32;99871.28;;;15.94;68.30
70103;BME280;57470;50.034;15.256;2023-05-07T10:09:59;99873.41;;;15.91;68.88
70103;BME280;57470;50.034;15.256;2023-05-07T10:12:25;99880.91;;;16.38;67.93
70103;BME280;57470;50.034;15.256;2023-05-07T10:14:52;99876.69;;;15.62;67.76
70103;BME280;57470;50.034;15.256;2023-05-07T10:17:18;99874.47;;;15.99;68.16
70103;BME280;57470;50.034;15.256;2023-05-07T10:19:44;99882.16;;;16.13;67.85
70103;BME280;57470;50.034;15.256;2023-05-07T10:22:11;99880.97;;;15.43;69.65
70103;BME280;57470;50.034;15.256;2023-05-07T10:24:37;99875.66;;;15.74;68.75
70103;BME280;57470;50.034;15.256;2023-05-07T10:27:08;99867.13;;;15.69;68.07
70103;BME280;57470;50.034;15.256;2023-05-07T10:29:39;99862.09;;;16.08;68.71
70103;BME280;57470;50.034;15.256;2023-05-07T10:32:19;99861.84;;;15.47;68.75
70103;BME280;57470;50.034;15.256;2023-05-07T10:34:53;99869.34;;;15.96;67.37
70103;BME280;57470;50.034;15.256;2023-05-07T10:37:20;99867.06;;;15.92;67.97
70103;BME280;57470;50.034;15.256;2023-05-07T10:39:46;99874.50;;;15.45;68.46
70103;BME280;57470;50.034;15.256;2023-05-07T10:42:13;99869.59;;;15.93;67.61
70103;BME280;57470;50.034;15.256;2023-05-07T10:44:38;99866.66;;;15.96;67.84
70103;BME280;57470;50.034;15.256;2023-05-07T10:47:08;99870.19;;;15.97;67.59
70103;BME280;57470;50.034;15.256;2023-05-07T10:52:21;99867.66;;;16.37;65.76
70103;BME280;57470;50.034;15.256;2023-05-07T10:57:50;99866.19;;;16.12;67.04
70103;BME280;57470;50.034;15.256;2023-05-07T11:03:04;99869.31;;;16.28;67.18
70103;BME280;57470;50.034;15.256;2023-05-07T11:05:32;99864.97;;;15.52;69.33
70103;BME280;57470;50.034;15.256;2023-05-07T11:08:03;99866.53;;;15.98;67.17
70103;BME280;57470;50.034;15.256;2023-05-07T11:13:14;99857.84;;;16.57;65.82
70103;BME280;57470;50.034;15.256;2023-05-07T11:15:42;99869.13;;;16.50;66.41
70103;BME280;57470;50.034;15.256;2023-05-07T11:18:08;99868.94;;;16.94;66.45
70103;BME280;57470;50.034;15.256;2023-05-07T11:20:47;99865.84;;;16.68;64.94
70103;BME280;57470;50.034;15.256;2023-05-07T11:26:15;99870.69;;;17.04;65.11
70103;BME280;57470;50.034;15.256;2023-05-07T11:28:42;99871.88;;;16.60;64.15
70103;BME280;57470;50.034;15.256;2023-05-07T11:31:08;99877.06;;;16.31;64.92
70103;BME280;57470;50.034;15.256;2023-05-07T11:33:35;99890.06;;;17.08;64.39
70103;BME280;57470;50.034;15.256;2023-05-07T11:36:03;99877.25;;;16.60;64.75
70103;BME280;57470;50.034;15.256;2023-05-07T11:38:29;99875.34;;;16.30;66.22
70103;BME280;57470;50.034;15.256;2023-05-07T11:40:57;99879.41;;;16.66;64.20
70103;BME280;57470;50.034;15.256;2023-05-07T11:43:24;99883.47;;;16.81;65.12
70103;BME280;57470;50.034;15.256;2023-05-07T11:45:49;99890.13;;;16.87;65.65
70103;BME280;57470;50.034;15.256;2023-05-07T11:48:16;99883.94;;;16.96;65.00
70103;BME280;57470;50.034;15.256;2023-05-07T11:51:00;99886.88;;;17.23;63.46
70103;BME280;57470;50.034;15.256;2023-05-07T11:53:27;99889.44;;;16.95;64.15
70103;BME280;57470;50.034;15.256;2023-05-07T11:55:56;99892.69;;;16.88;64.35
70103;BME280;57470;50.034;15.256;2023-05-07T11:58:23;99890.38;;;16.84;63.53
70103;BME280;57470;50.034;15.256;2023-05-07T12:00:53;99890.56;;;15.99;64.17
70103;BME280;57470;50.034;15.256;2023-05-07T12:03:20;99895.47;;;16.36;64.21
70103;BME280;57470;50.034;15.256;2023-05-07T12:05:46;99897.69;;;16.10;64.55
70103;BME280;57470;50.034;15.256;2023-05-07T12:08:18;99901.28;;;17.22;64.75
70103;BME280;57470;50.034;15.256;2023-05-07T12:10:46;99909.38;;;17.32;62.62
70103;BME280;57470;50.034;15.256;2023-05-07T12:13:16;99903.81;;;17.14;62.57
70103;BME280;57470;50.034;15.256;2023-05-07T12:15:42;99898.00;;;16.37;64.71
70103;BME280;57470;50.034;15.256;2023-05-07T12:18:08;99905.28;;;16.26;63.14
70103;BME280;57470;50.034;15.256;2023-05-07T12:20:35;99903.25;;;16.60;62.78
70103;BME280;57470;50.034;15.256;2023-05-07T12:23:01;99893.66;;;16.87;64.74
70103;BME280;57470;50.034;15.256;2023-05-07T12:25:30;99900.38;;;17.43;62.36
70103;BME280;57470;50.034;15.256;2023-05-07T12:27:56;99907.09;;;17.27;62.32
70103;BME280;57470;50.034;15.256;2023-05-07T12:30:24;99898.22;;;16.66;62.37
70103;BME280;57470;50.034;15.256;2023-05-07T12:32:52;99888.78;;;16.72;62.92
70103;BME280;57470;50.034;15.256;2023-05-07T12:35:26;99898.59;;;16.41;64.18
70103;BME280;57470;50.034;15.256;2023-05-07T12:37:55;99897.66;;;16.63;63.42
70103;BME280;57470;50.034;15.256;2023-05-07T12:40:21;99908.97;;;16.45;62.79
70103;BME280;57470;50.034;15.256;2023-05-07T12:42:46;99906.97;;;16.47;63.51
70103;BME280;57470;50.034;15.256;2023-05-07T12:45:12;99901.75;;;16.25;64.09
70103;BME280;57470;50.034;15.256;2023-05-07T12:47:38;99905.81;;;16.40;63.81
70103;BME280;57470;50.034;15.256;2023-05-07T12:50:07;99911.72;;;16.34;63.61
70103;BME280;57470;50.034;15.256;2023-05-07T12:52:33;99917.28;;;16.42;64.58
70103;BME280;57470;50.034;15.256;2023-05-07T12:55:05;99910.78;;;16.24;64.45
70103;BME280;57470;50.034;15.256;2023-05-07T12:57:30;99914.69;;;16.20;65.14
70103;BME280;57470;50.034;15.256;2023-05-07T12:59:57;99910.31;;;16.40;64.01